Time;durP1;ratioP1;P1;durP2;ratioP2;P2;SDS_P1;SDS_P2;PMS_P1;PMS_P2;Temp;Humidity;BMP_temperature;BMP_pressure;BME280_temperature;BME280_humidity;BME280_pressure;Samples;Min_cycle;Max_cycle;Signal;HPM_P1;HPM_P2
2021/09/24 00:00:45;;;;;;;1.70;0.55;;;12.90;1.00;;;;;;4972157;28;20183;-66
2021/09/24 00:03:10;;;;;;;2.00;0.93;;;12.90;1.00;;;;;;4973021;28;20648;-66
2021/09/24 00:05:36;;;;;;;0.30;0.20;;;12.90;1.00;;;;;;4972638;28;20234;-66
2021/09/24 00:08:02;;;;;;;0.67;0.67;;;12.80;1.00;;;;;;4974351;28;20185;-65
2021/09/24 00:10:27;;;;;;;1.03;0.30;;;12.70;1.00;;;;;;4974638;28;20565;-65
2021/09/24 00:12:53;;;;;;;2.00;1.00;;;12.70;5.60;;;;;;4974729;28;20175;-66
2021/09/24 00:15:18;;;;;;;3.03;0.57;;;12.70;22.10;;;;;;4973724;28;20222;-66
2021/09/24 00:17:45;;;;;;;0.30;0.20;;;12.60;29.70;;;;;;4974561;28;20318;-66
2021/09/24 00:20:11;;;;;;;0.77;0.77;;;12.60;34.90;;;;;;4974544;28;20179;-69
2021/09/24 00:22:37;;;;;;;0.70;0.50;;;12.70;25.90;;;;;;4974647;28;20262;-69
2021/09/24 00:25:04;;;;;;;0.53;0.50;;;12.70;29.60;;;;;;4974578;28;20274;-69
2021/09/24 00:27:30;;;;;;;0.30;0.20;;;12.70;26.70;;;;;;4974526;28;20226;-69
2021/09/24 00:29:55;;;;;;;0.30;0.17;;;12.70;48.50;;;;;;4974437;28;20219;-69
2021/09/24 00:32:22;;;;;;;2.53;1.70;;;12.70;50.60;;;;;;4973511;28;20180;-69
2021/09/24 00:34:48;;;;;;;0.50;0.30;;;12.70;66.30;;;;;;4974541;28;20172;-69
2021/09/24 00:37:14;;;;;;;0.50;0.40;;;12.50;99.90;;;;;;4974433;28;20191;-69
2021/09/24 00:39:39;;;;;;;1.73;0.30;;;12.50;99.90;;;;;;4974455;28;20191;-69
2021/09/24 00:42:05;;;;;;;3.70;2.20;;;12.40;99.90;;;;;;4974518;28;20183;-66
2021/09/24 00:44:44;;;;;;;6.78;1.50;;;12.40;99.90;;;;;;4974396;28;20191;-66
2021/09/24 00:47:09;;;;;;;0.30;0.20;;;12.40;99.90;;;;;;4974200;28;20211;-66
2021/09/24 00:49:36;;;;;;;0.93;0.40;;;12.40;99.90;;;;;;4974128;28;20334;-66
2021/09/24 00:52:03;;;;;;;0.30;0.30;;;12.40;99.90;;;;;;4974343;28;20756;-65
2021/09/24 00:54:30;;;;;;;0.43;0.43;;;12.40;99.90;;;;;;4974503;28;20182;-66
2021/09/24 00:56:55;;;;;;;3.80;2.50;;;12.30;99.90;;;;;;4974153;28;20628;-65
2021/09/24 00:59:21;;;;;;;0.30;0.10;;;12.20;99.90;;;;;;4974232;28;20188;-67
2021/09/24 01:01:46;;;;;;;0.30;0.20;;;12.20;99.90;;;;;;4976750;28;20567;-70
2021/09/24 01:04:12;;;;;;;0.30;0.20;;;12.20;99.90;;;;;;4977961;28;20191;-69
2021/09/24 01:06:40;;;;;;;0.30;0.20;;;12.20;99.90;;;;;;4977652;28;20214;-66
2021/09/24 01:09:05;;;;;;;0.50;0.30;;;12.20;99.90;;;;;;4977709;28;20427;-66
2021/09/24 01:11:31;;;;;;;1.57;0.43;;;12.20;99.90;;;;;;4977813;28;20629;-69
2021/09/24 01:13:56;;;;;;;0.30;0.20;;;12.30;99.90;;;;;;4977720;28;20266;-66
2021/09/24 01:16:22;;;;;;;0.30;0.20;;;12.20;99.90;;;;;;4978054;28;20188;-66
2021/09/24 01:18:48;;;;;;;1.63;1.53;;;12.20;99.90;;;;;;4977705;28;20221;-66
2021/09/24 01:21:13;;;;;;;0.30;0.20;;;12.20;99.90;;;;;;4978643;28;20287;-66
2021/09/24 01:23:39;;;;;;;0.30;0.20;;;12.10;99.90;;;;;;4978680;28;20525;-66
2021/09/24 01:26:05;;;;;;;0.40;0.40;;;12.10;99.90;;;;;;4978341;28;20656;-67
2021/09/24 01:28:30;;;;;;;0.30;0.20;;;12.10;99.90;;;;;;4977935;28;20187;-66
2021/09/24 01:30:56;;;;;;;7.53;5.10;;;12.10;99.90;;;;;;4977336;28;20237;-68
2021/09/24 01:33:21;;;;;;;0.30;0.20;;;12.10;99.90;;;;;;4977289;28;20526;-68
2021/09/24 01:35:47;;;;;;;2.00;1.80;;;12.10;99.90;;;;;;4977647;28;20219;-69
2021/09/24 01:38:13;;;;;;;8.40;0.50;;;12.00;99.90;;;;;;4977087;28;20179;-66
2021/09/24 01:40:38;;;;;;;0.67;0.47;;;11.90;99.90;;;;;;4977961;28;20610;-70
2021/09/24 01:43:04;;;;;;;0.30;0.20;;;11.90;99.90;;;;;;4977254;28;20266;-69
2021/09/24 01:45:29;;;;;;;44.00;4.60;;;12.00;99.90;;;;;;4976961;28;20222;-69
2021/09/24 01:47:55;;;;;;;0.30;0.20;;;11.90;99.90;;;;;;4977007;28;20188;-69
2021/09/24 01:50:20;;;;;;;7.73;2.13;;;11.90;99.90;;;;;;4976828;28;20235;-68
2021/09/24 01:52:46;;;;;;;0.30;0.20;;;11.80;99.90;;;;;;4977473;28;20179;-70
2021/09/24 01:55:12;;;;;;;0.30;0.13;;;11.80;99.90;;;;;;4977716;28;20184;-67
2021/09/24 01:57:39;;;;;;;3.13;0.90;;;11.90;99.90;;;;;;4976962;28;20259;-66
2021/09/24 02:00:07;;;;;;;0.30;0.20;;;11.80;99.90;;;;;;4976741;28;20214;-66
2021/09/24 02:02:33;;;;;;;0.30;0.20;;;11.80;99.90;;;;;;4976811;28;20262;-66
2021/09/24 02:04:58;;;;;;;0.30;0.20;;;11.80;99.90;;;;;;4976763;28;20211;-66
2021/09/24 02:07:24;;;;;;;7.00;1.03;;;11.90;99.90;;;;;;4976615;28;20267;-66
2021/09/24 02:09:50;;;;;;;2.60;0.60;;;11.80;99.90;;;;;;4977699;28;20183;-69
2021/09/24 02:12:15;;;;;;;0.30;0.20;;;11.70;99.90;;;;;;4976577;28;20194;-70
2021/09/24 02:14:41;;;;;;;2.83;0.30;;;11.80;99.90;;;;;;4977130;28;20172;-66
2021/09/24 02:17:06;;;;;;;0.40;0.30;;;11.80;99.90;;;;;;4976581;28;20180;-66
2021/09/24 02:19:32;;;;;;;1.93;1.73;;;11.80;99.90;;;;;;4976383;28;20620;-66
2021/09/24 02:21:58;;;;;;;0.30;0.20;;;11.80;99.90;;;;;;4976556;28;20188;-66
2021/09/24 02:24:24;;;;;;;0.40;0.30;;;11.90;99.90;;;;;;4975510;28;20246;-66
2021/09/24 02:26:50;;;;;;;0.73;0.65;;;11.90;99.90;;;;;;4975294;28;20243;-66
2021/09/24 02:29:16;;;;;;;0.30;0.20;;;12.00;99.90;;;;;;4976274;28;20270;-66
2021/09/24 02:31:41;;;;;;;7.50;0.43;;;11.90;99.90;;;;;;4976521;28;20190;-66
2021/09/24 02:34:08;;;;;;;1.23;1.13;;;11.70;99.90;;;;;;4977737;28;20191;-70
2021/09/24 02:36:33;;;;;;;14.95;3.00;;;11.60;99.90;;;;;;4977336;28;20664;-69
2021/09/24 02:38:59;;;;;;;0.30;0.20;;;11.60;99.90;;;;;;4976496;28;20322;-65
2021/09/24 02:41:25;;;;;;;0.30;0.20;;;11.50;99.90;;;;;;4976267;28;20431;-66
2021/09/24 02:43:50;;;;;;;0.30;0.20;;;11.50;99.90;;;;;;4975286;28;20219;-67
2021/09/24 02:46:16;;;;;;;0.57;0.57;;;11.60;99.90;;;;;;4976321;28;20257;-68
2021/09/24 02:48:41;;;;;;;0.30;0.10;;;11.60;99.90;;;;;;4975657;28;20207;-66
2021/09/24 02:51:07;;;;;;;0.50;0.40;;;11.50;99.90;;;;;;4975046;28;20198;-65
2021/09/24 02:53:33;;;;;;;1.67;1.67;;;11.60;99.90;;;;;;4976699;28;20247;-69
2021/09/24 02:55:58;;;;;;;0.67;0.67;;;11.60;99.90;;;;;;4975869;28;20190;-66
2021/09/24 02:58:24;;;;;;;9.57;0.53;;;11.50;99.90;;;;;;4975429;28;20266;-66
2021/09/24 03:00:49;;;;;;;0.30;0.10;;;11.50;99.90;;;;;;4975812;28;20271;-66
2021/09/24 03:03:15;;;;;;;2.30;0.53;;;11.60;99.90;;;;;;4975703;28;20214;-66
2021/09/24 03:05:40;;;;;;;0.30;0.20;;;11.70;99.90;;;;;;4975638;28;20212;-66
2021/09/24 03:08:06;;;;;;;0.30;0.20;;;11.60;99.90;;;;;;4975297;28;20665;-68
2021/09/24 03:10:32;;;;;;;0.37;0.27;;;11.70;99.90;;;;;;4974720;28;20183;-66
2021/09/24 03:12:57;;;;;;;0.77;0.20;;;11.70;99.90;;;;;;4975345;28;20198;-66
2021/09/24 03:15:23;;;;;;;0.30;0.30;;;11.60;99.90;;;;;;4975737;28;20218;-64
2021/09/24 03:17:48;;;;;;;8.73;1.70;;;11.70;99.90;;;;;;4974439;28;20199;-66
2021/09/24 03:20:14;;;;;;;0.40;0.30;;;11.70;99.90;;;;;;4975699;28;20180;-66
2021/09/24 03:22:40;;;;;;;0.30;0.20;;;11.80;99.90;;;;;;4975959;28;20183;-66
2021/09/24 03:25:06;;;;;;;0.73;0.73;;;11.80;99.90;;;;;;4975361;28;20805;-66
2021/09/24 03:27:34;;;;;;;0.30;0.20;;;11.80;99.90;;;;;;4976772;28;20277;-66
2021/09/24 03:30:00;;;;;;;0.30;0.20;;;11.70;99.90;;;;;;4976698;28;20892;-66
2021/09/24 03:32:26;;;;;;;0.30;0.20;;;11.70;99.90;;;;;;4975827;28;20187;-66
2021/09/24 03:34:51;;;;;;;3.17;0.80;;;11.70;99.90;;;;;;4975270;28;20594;-66
2021/09/24 03:37:17;;;;;;;3.17;0.40;;;11.60;99.90;;;;;;4974994;28;20183;-66
2021/09/24 03:39:43;;;;;;;4.97;0.40;;;11.70;99.90;;;;;;4975020;28;20190;-66
2021/09/24 03:42:09;;;;;;;2.05;0.40;;;11.70;99.90;;;;;;4974949;28;20266;-66
2021/09/24 03:44:36;;;;;;;0.30;0.10;;;11.60;99.90;;;;;;4975287;28;20212;-65
2021/09/24 03:47:02;;;;;;;2.95;2.75;;;11.50;99.90;;;;;;4974762;28;20207;-66
2021/09/24 03:49:28;;;;;;;3.20;0.50;;;11.50;99.90;;;;;;4974793;28;20203;-66
2021/09/24 03:51:54;;;;;;;0.45;0.35;;;11.60;99.90;;;;;;4974921;28;20179;-66
2021/09/24 03:54:20;;;;;;;1.17;0.70;;;11.60;99.90;;;;;;4974758;28;20207;-66
2021/09/24 03:56:45;;;;;;;0.30;0.20;;;11.50;99.90;;;;;;4974577;28;20184;-66
2021/09/24 03:59:12;;;;;;;4.03;1.53;;;11.60;99.90;;;;;;4973887;28;20635;-68
2021/09/24 04:01:40;;;;;;;9.23;1.65;;;11.60;99.90;;;;;;4973692;28;20274;-68
2021/09/24 04:04:06;;;;;;;0.30;0.10;;;11.50;99.90;;;;;;4974695;28;20187;-68
2021/09/24 04:06:32;;;;;;;0.40;0.30;;;11.60;99.90;;;;;;4973777;28;20206;-68
2021/09/24 04:08:58;;;;;;;0.50;0.30;;;11.60;99.90;;;;;;4974644;28;20186;-68
2021/09/24 04:11:24;;;;;;;0.30;0.20;;;11.60;99.90;;;;;;4974961;28;20938;-67
2021/09/24 04:13:50;;;;;;;0.63;0.30;;;11.70;99.90;;;;;;4974978;28;20258;-67
2021/09/24 04:16:16;;;;;;;0.40;0.35;;;11.70;99.90;;;;;;4974774;28;20187;-67
2021/09/24 04:18:42;;;;;;;0.30;0.23;;;11.70;99.90;;;;;;4974730;28;20201;-69
2021/09/24 04:21:08;;;;;;;0.30;0.20;;;11.70;99.90;;;;;;4973713;28;20434;-69
2021/09/24 04:23:34;;;;;;;0.40;0.30;;;11.70;99.90;;;;;;4974604;28;20496;-68
2021/09/24 04:25:59;;;;;;;1.80;0.93;;;11.70;99.90;;;;;;4974557;28;20549;-69
2021/09/24 04:28:25;;;;;;;1.37;0.50;;;11.60;99.90;;;;;;4973376;28;20483;-69
2021/09/24 04:30:50;;;;;;;0.30;0.10;;;11.60;99.90;;;;;;4974579;28;20187;-69
2021/09/24 04:33:16;;;;;;;0.40;0.33;;;11.70;99.90;;;;;;4974595;28;20176;-69
2021/09/24 04:35:42;;;;;;;0.30;0.20;;;11.60;99.90;;;;;;4977020;28;20491;-68
2021/09/24 04:38:07;;;;;;;0.40;0.40;;;11.60;99.90;;;;;;4978339;28;20184;-69
2021/09/24 04:40:33;;;;;;;0.30;0.30;;;11.60;99.90;;;;;;4978323;28;20226;-69
2021/09/24 04:42:59;;;;;;;0.30;0.20;;;11.60;99.90;;;;;;4978427;28;20187;-69
2021/09/24 04:45:25;;;;;;;3.03;0.80;;;11.50;99.90;;;;;;4978113;28;20608;-69
2021/09/24 04:47:50;;;;;;;0.63;0.63;;;11.50;99.90;;;;;;4978068;28;20435;-69
2021/09/24 04:50:16;;;;;;;0.30;0.30;;;11.50;99.90;;;;;;4977996;28;20199;-69
2021/09/24 04:52:41;;;;;;;0.30;0.20;;;11.60;99.90;;;;;;4978066;28;20175;-69
2021/09/24 04:55:08;;;;;;;0.40;0.20;;;11.60;99.90;;;;;;4978322;28;20278;-69
2021/09/24 04:57:35;;;;;;;0.30;0.20;;;11.60;99.90;;;;;;4977893;28;20575;-69
2021/09/24 05:00:00;;;;;;;0.30;0.20;;;11.60;99.90;;;;;;4976697;28;20238;-69
2021/09/24 05:02:26;;;;;;;0.70;0.47;;;11.70;99.90;;;;;;4977491;28;20211;-69
2021/09/24 05:04:51;;;;;;;0.30;0.20;;;11.80;99.90;;;;;;4977976;28;20234;-69
2021/09/24 05:07:17;;;;;;;2.43;1.40;;;11.70;99.90;;;;;;4977564;28;20218;-68
2021/09/24 05:09:42;;;;;;;0.63;0.63;;;11.70;99.90;;;;;;4977342;28;20194;-67
2021/09/24 05:12:08;;;;;;;1.07;0.80;;;11.70;99.90;;;;;;4977591;28;20184;-67
2021/09/24 05:14:34;;;;;;;0.30;0.10;;;11.70;99.90;;;;;;4977702;28;20529;-67
2021/09/24 05:17:00;;;;;;;0.50;0.30;;;11.70;99.90;;;;;;4977445;28;20535;-68
2021/09/24 05:19:26;;;;;;;0.30;0.30;;;11.90;99.90;;;;;;4977486;28;20509;-65
2021/09/24 05:21:51;;;;;;;0.60;0.30;;;11.90;99.90;;;;;;4976539;28;20643;-65
2021/09/24 05:24:17;;;;;;;1.80;0.83;;;11.90;99.90;;;;;;4977885;28;20567;-67
2021/09/24 05:26:42;;;;;;;0.30;0.20;;;12.00;99.90;;;;;;4977797;28;20219;-70
2021/09/24 05:29:08;;;;;;;0.40;0.37;;;12.10;99.90;;;;;;4976571;28;20266;-65
2021/09/24 05:31:33;;;;;;;0.30;0.20;;;12.20;99.90;;;;;;4977541;28;20180;-65
2021/09/24 05:34:02;;;;;;;1.00;0.20;;;12.10;99.90;;;;;;4977214;28;20175;-65
2021/09/24 05:36:27;;;;;;;0.30;0.20;;;12.20;99.90;;;;;;4976339;28;20187;-65
2021/09/24 05:38:53;;;;;;;4.77;1.47;;;12.20;99.90;;;;;;4977080;28;20510;-66
2021/09/24 05:41:19;;;;;;;10.40;1.23;;;12.20;99.90;;;;;;4977519;28;20234;-66
2021/09/24 05:43:44;;;;;;;1.00;0.90;;;12.40;99.90;;;;;;4977381;28;20673;-66
2021/09/24 05:46:10;;;;;;;3.20;0.87;;;12.40;99.90;;;;;;4976716;28;20207;-65
2021/09/24 05:48:36;;;;;;;0.30;0.20;;;12.50;99.90;;;;;;4985243;28;20183;-66
2021/09/24 05:51:01;;;;;;;0.30;0.20;;;12.50;99.90;;;;;;4996284;28;20582;-66
2021/09/24 05:53:27;;;;;;;1.23;1.23;;;12.50;99.90;;;;;;4995993;28;20186;-65
2021/09/24 05:55:53;;;;;;;0.30;0.10;;;12.50;99.90;;;;;;5004137;28;20619;-65
2021/09/24 05:58:19;;;;;;;0.30;0.20;;;12.50;99.90;;;;;;5015328;28;20189;-66
2021/09/24 06:00:44;;;;;;;0.30;0.20;;;12.60;99.90;;;;;;5015463;28;20464;-65
2021/09/24 06:03:10;;;;;;;2.67;1.07;;;12.60;99.90;;;;;;5014597;28;20638;-68
2021/09/24 06:05:35;;;;;;;0.30;0.20;;;12.80;99.90;;;;;;5015427;28;20659;-65
2021/09/24 06:08:01;;;;;;;0.93;0.93;;;13.20;99.90;;;;;;5015663;28;20197;-65
2021/09/24 06:10:26;;;;;;;2.10;0.93;;;13.90;99.90;;;;;;5015714;28;20178;-65
2021/09/24 06:12:52;;;;;;;0.40;0.30;;;14.10;99.90;;;;;;5015581;28;20190;-66
2021/09/24 06:15:22;;;;;;;6.30;1.80;;;13.80;99.90;;;;;;5015785;28;20178;-66
2021/09/24 06:17:48;;;;;;;0.30;0.20;;;13.60;99.90;;;;;;5015633;28;20170;-66
2021/09/24 06:20:15;;;;;;;1.95;0.45;;;13.60;99.90;;;;;;5015763;28;20186;-68
2021/09/24 06:22:42;;;;;;;0.30;0.20;;;13.60;99.90;;;;;;5012430;28;20187;-69
2021/09/24 06:25:08;;;;;;;0.70;0.20;;;13.60;99.90;;;;;;4994607;28;20175;-65
2021/09/24 06:27:36;;;;;;;0.75;0.57;;;13.60;99.90;;;;;;4993754;28;20226;-65
2021/09/24 06:30:07;;;;;;;0.30;0.20;;;13.60;99.90;;;;;;4993881;28;20167;-66
2021/09/24 06:32:33;;;;;;;2.45;0.40;;;13.60;99.90;;;;;;4995657;28;20185;-67
2021/09/24 06:34:59;;;;;;;0.30;0.20;;;13.60;99.90;;;;;;4995393;28;20190;-66
2021/09/24 06:37:24;;;;;;;0.30;0.20;;;13.70;99.90;;;;;;4995394;28;20252;-66
2021/09/24 06:39:50;;;;;;;0.40;0.30;;;13.70;99.90;;;;;;4993891;28;20629;-67
2021/09/24 06:42:15;;;;;;;0.30;0.20;;;13.80;99.90;;;;;;4995424;28;20208;-67
2021/09/24 06:44:42;;;;;;;0.30;0.20;;;13.90;99.90;;;;;;4995018;28;20647;-67
2021/09/24 06:47:07;;;;;;;0.40;0.40;;;13.90;99.90;;;;;;4994809;28;20286;-66
2021/09/24 06:49:36;;;;;;;0.67;0.67;;;13.80;99.90;;;;;;4994328;28;20288;-66
2021/09/24 06:52:03;;;;;;;1.48;0.95;;;13.90;99.90;;;;;;4995051;28;20273;-66
2021/09/24 06:54:29;;;;;;;0.30;0.20;;;13.80;99.90;;;;;;4995104;28;20187;-65
2021/09/24 06:56:55;;;;;;;0.30;0.20;;;13.80;99.90;;;;;;4995009;28;20186;-65
2021/09/24 06:59:21;;;;;;;0.30;0.17;;;13.80;99.90;;;;;;4994178;28;20281;-65
2021/09/24 07:01:46;;;;;;;0.80;0.50;;;13.70;99.90;;;;;;4995909;28;20248;-65
2021/09/24 07:04:13;;;;;;;0.30;0.20;;;13.90;99.90;;;;;;4994709;28;20638;-65
2021/09/24 07:06:39;;;;;;;0.30;0.20;;;13.90;99.90;;;;;;4994586;28;20225;-65
2021/09/24 07:09:04;;;;;;;0.30;0.10;;;13.90;99.90;;;;;;4995331;28;20187;-66
2021/09/24 07:11:31;;;;;;;0.30;0.20;;;14.00;99.90;;;;;;4994912;28;20550;-66
2021/09/24 07:13:57;;;;;;;0.30;0.20;;;14.10;99.90;;;;;;4995230;28;20427;-68
2021/09/24 07:16:23;;;;;;;0.30;0.20;;;14.30;99.90;;;;;;4994796;28;20643;-69
2021/09/24 07:18:49;;;;;;;0.40;0.20;;;14.60;99.90;;;;;;4977501;28;20183;-68
2021/09/24 07:21:14;;;;;;;0.40;0.20;;;14.40;99.90;;;;;;4994733;28;20337;-69
2021/09/24 07:23:40;;;;;;;0.30;0.10;;;14.40;99.90;;;;;;4994713;28;20695;-68
2021/09/24 07:26:06;;;;;;;0.40;0.30;;;14.50;99.90;;;;;;4994462;28;20202;-69
2021/09/24 07:28:31;;;;;;;0.30;0.30;;;14.60;99.90;;;;;;4994422;28;20206;-69
2021/09/24 07:30:57;;;;;;;0.30;0.20;;;14.70;99.90;;;;;;4994551;28;20197;-69
2021/09/24 07:33:23;;;;;;;0.40;0.20;;;14.80;99.90;;;;;;4994706;28;20623;-69
2021/09/24 07:35:49;;;;;;;0.50;0.40;;;14.90;99.90;;;;;;4994421;28;20202;-71
2021/09/24 07:38:16;;;;;;;0.40;0.20;;;14.90;99.90;;;;;;4993242;28;20197;-68
2021/09/24 07:40:42;;;;;;;0.30;0.20;;;15.00;99.90;;;;;;4993388;28;20199;-70
2021/09/24 07:43:07;;;;;;;0.40;0.20;;;15.30;99.90;;;;;;4993407;28;20179;-70
2021/09/24 07:45:33;;;;;;;0.30;0.20;;;15.30;99.90;;;;;;4994188;28;20205;-70
2021/09/24 07:47:59;;;;;;;0.30;0.10;;;15.40;99.90;;;;;;4994297;28;20183;-70
2021/09/24 07:50:24;;;;;;;0.30;0.10;;;15.50;99.90;;;;;;4994233;28;20213;-70
2021/09/24 07:52:50;;;;;;;0.40;0.20;;;15.60;99.90;;;;;;4994236;28;20186;-71
2021/09/24 07:55:15;;;;;;;0.40;0.20;;;15.80;99.90;;;;;;4994217;28;20179;-70
2021/09/24 07:57:41;;;;;;;0.40;0.23;;;15.70;99.90;;;;;;4993996;28;20241;-70
2021/09/24 08:00:07;;;;;;;0.40;0.20;;;15.80;99.90;;;;;;4993587;28;20244;-68
2021/09/24 08:02:33;;;;;;;0.50;0.30;;;15.60;99.90;;;;;;4994131;28;20190;-68
2021/09/24 08:04:59;;;;;;;0.40;0.20;;;15.70;99.90;;;;;;4994228;28;20598;-68
2021/09/24 08:07:24;;;;;;;0.40;0.30;;;15.80;99.90;;;;;;4994375;28;20213;-68
2021/09/24 08:09:50;;;;;;;10.10;1.33;;;15.70;99.90;;;;;;4993617;28;20257;-68
2021/09/24 08:12:16;;;;;;;0.40;0.20;;;15.70;99.90;;;;;;4994482;28;20210;-68
2021/09/24 08:14:42;;;;;;;0.40;0.20;;;15.70;99.90;;;;;;4994198;28;20454;-68
2021/09/24 08:17:09;;;;;;;0.40;0.20;;;16.10;99.90;;;;;;4994260;28;20441;-68
2021/09/24 08:19:35;;;;;;;0.40;0.20;;;16.30;99.90;;;;;;4993803;28;20969;-68
2021/09/24 08:22:01;;;;;;;0.93;0.30;;;16.40;99.90;;;;;;4994244;28;20460;-68
2021/09/24 08:24:27;;;;;;;0.40;0.20;;;16.50;99.90;;;;;;4993854;28;20214;-68
2021/09/24 08:26:52;;;;;;;0.40;0.20;;;16.70;99.90;;;;;;4992841;28;20214;-70
2021/09/24 08:29:18;;;;;;;0.80;0.47;;;17.00;99.90;;;;;;4993742;28;20653;-68
2021/09/24 08:31:43;;;;;;;0.40;0.20;;;17.10;99.90;;;;;;4994078;28;20189;-69
2021/09/24 08:34:09;;;;;;;0.50;0.30;;;17.00;99.90;;;;;;4994304;28;20569;-69
2021/09/24 08:36:35;;;;;;;0.40;0.30;;;16.90;99.90;;;;;;4993667;28;20179;-69
2021/09/24 08:39:00;;;;;;;0.40;0.20;;;17.00;99.90;;;;;;4993487;28;20230;-69
2021/09/24 08:41:29;;;;;;;0.40;0.20;;;16.90;99.90;;;;;;4992939;28;20592;-70
2021/09/24 08:43:58;;;;;;;0.40;0.20;;;16.70;99.90;;;;;;4992643;28;20183;-70
2021/09/24 08:46:24;;;;;;;0.40;0.20;;;16.70;99.90;;;;;;4993695;28;20532;-70
2021/09/24 08:48:50;;;;;;;4.00;1.13;;;16.80;99.90;;;;;;4993536;28;20445;-69
2021/09/24 08:51:17;;;;;;;0.40;0.17;;;16.70;99.90;;;;;;4993831;28;20425;-69
2021/09/24 08:53:43;;;;;;;0.40;0.20;;;16.50;99.90;;;;;;4992633;28;20438;-68
2021/09/24 08:56:10;;;;;;;1.20;1.03;;;16.50;99.90;;;;;;4993674;28;20437;-66
2021/09/24 08:58:36;;;;;;;0.40;0.30;;;16.40;99.90;;;;;;4993408;28;20903;-66
2021/09/24 09:01:03;;;;;;;1.23;0.40;;;16.30;99.90;;;;;;4993570;28;20512;-66
2021/09/24 09:03:44;;;;;;;0.40;0.20;;;16.40;99.90;;;;;;4993544;28;20918;-65
2021/09/24 09:06:13;;;;;;;4.00;1.03;;;16.50;99.90;;;;;;4993299;28;20475;-66
2021/09/24 09:08:38;;;;;;;1.17;1.07;;;16.40;99.90;;;;;;4993277;28;20429;-66
2021/09/24 09:11:07;;;;;;;1.57;0.60;;;16.50;99.90;;;;;;4993556;28;20422;-65
2021/09/24 09:13:40;;;;;;;0.47;0.40;;;16.60;99.90;;;;;;4993528;28;20189;-66
2021/09/24 09:16:07;;;;;;;4.93;0.93;;;16.70;99.90;;;;;;4992566;28;20457;-68
2021/09/24 09:18:37;;;;;;;0.50;0.20;;;16.60;99.90;;;;;;4993203;28;20469;-69
2021/09/24 09:21:05;;;;;;;0.40;0.20;;;16.50;99.90;;;;;;4993452;28;20442;-69
2021/09/24 09:23:32;;;;;;;0.40;0.20;;;16.60;99.90;;;;;;4996668;28;20213;-68
2021/09/24 09:26:03;;;;;;;0.43;0.30;;;16.80;99.90;;;;;;4996796;28;20805;-70
2021/09/24 09:28:37;;;;;;;0.40;0.20;;;16.90;99.90;;;;;;4996732;28;20763;-69
2021/09/24 09:31:17;;;;;;;0.40;0.13;;;17.00;99.90;;;;;;4996592;28;20441;-69
2021/09/24 09:33:42;;;;;;;0.40;0.20;;;17.20;99.90;;;;;;4996342;28;20432;-68
2021/09/24 09:36:08;;;;;;;0.53;0.50;;;17.40;99.90;;;;;;4996658;28;20434;-66
2021/09/24 09:38:39;;;;;;;0.60;0.50;;;17.50;99.90;;;;;;4996693;28;20238;-66
2021/09/24 09:41:14;;;;;;;0.50;0.30;;;17.50;99.90;;;;;;4996861;28;20222;-65
2021/09/24 09:43:45;;;;;;;0.40;0.20;;;17.40;99.90;;;;;;5001636;28;20809;-66
2021/09/24 09:46:13;;;;;;;0.40;0.20;;;17.30;99.90;;;;;;5001542;28;20567;-67
2021/09/24 09:48:39;;;;;;;21.63;1.57;;;17.30;99.90;;;;;;5014671;28;20460;-69
2021/09/24 09:51:05;;;;;;;1.33;1.23;;;17.60;99.90;;;;;;5005408;28;20545;-68
2021/09/24 09:53:32;;;;;;;1.63;0.60;;;18.10;99.90;;;;;;4995697;28;20429;-68
2021/09/24 09:56:01;;;;;;;0.40;0.30;;;18.10;99.90;;;;;;4996489;28;20429;-66
2021/09/24 09:58:31;;;;;;;2.50;0.70;;;17.70;99.90;;;;;;4996960;28;20430;-69
2021/09/24 10:01:05;;;;;;;0.93;0.50;;;17.90;99.90;;;;;;5015669;28;20837;-69
2021/09/24 10:03:46;;;;;;;1.60;1.50;;;17.70;99.90;;;;;;5016145;28;20731;-69
2021/09/24 10:06:23;;;;;;;3.07;0.97;;;17.50;99.90;;;;;;5015939;28;20460;-66
2021/09/24 10:09:04;;;;;;;0.40;0.20;;;17.40;99.90;;;;;;5015758;28;20487;-66
2021/09/24 10:11:40;;;;;;;0.40;0.20;;;17.60;99.90;;;;;;5015674;28;20425;-67
2021/09/24 10:14:09;;;;;;;0.40;0.20;;;17.90;99.90;;;;;;5015820;28;20810;-66
2021/09/24 10:16:38;;;;;;;0.40;0.20;;;17.90;99.90;;;;;;5004693;28;20448;-66
2021/09/24 10:19:05;;;;;;;0.50;0.30;;;17.70;99.90;;;;;;4995811;28;20917;-66
2021/09/24 10:21:30;;;;;;;0.50;0.20;;;17.80;99.90;;;;;;4995871;28;20426;-66
2021/09/24 10:23:57;;;;;;;0.40;0.20;;;17.70;99.90;;;;;;4995814;28;20733;-66
2021/09/24 10:26:37;;;;;;;1.43;0.20;;;17.50;99.90;;;;;;4995715;28;20207;-66
2021/09/24 10:29:14;;;;;;;0.60;0.37;;;17.90;99.90;;;;;;4995816;28;20593;-67
2021/09/24 10:31:47;;;;;;;0.40;0.20;;;17.80;99.90;;;;;;4995817;28;20484;-66
2021/09/24 10:34:15;;;;;;;2.00;1.27;;;17.70;99.90;;;;;;4995601;28;20430;-67
2021/09/24 10:36:46;;;;;;;0.40;0.20;;;17.70;99.90;;;;;;4995541;28;20426;-67
2021/09/24 10:39:42;;;;;;;0.40;0.10;;;17.50;99.90;;;;;;4995453;28;20434;-66
2021/09/24 10:42:36;;;;;;;0.40;0.20;;;17.40;99.90;;;;;;4990904;28;20446;-67
2021/09/24 10:45:33;;;;;;;0.60;0.53;;;17.60;99.90;;;;;;4994752;28;20936;-68
2021/09/24 10:48:16;;;;;;;0.40;0.20;;;17.60;99.90;;;;;;4995688;28;20524;-67
2021/09/24 10:50:45;;;;;;;0.60;0.40;;;17.50;99.90;;;;;;5005080;28;20515;-68
2021/09/24 10:53:14;;;;;;;0.40;0.20;;;17.30;99.90;;;;;;5014210;28;20941;-69
2021/09/24 10:55:41;;;;;;;0.60;0.60;;;17.10;99.90;;;;;;5013637;28;20482;-70
2021/09/24 10:58:34;;;;;;;0.60;0.20;;;17.20;99.90;;;;;;5014704;28;20416;-69
2021/09/24 11:01:12;;;;;;;1.13;0.70;;;17.30;99.90;;;;;;5011643;28;20527;-67
2021/09/24 11:03:51;;;;;;;1.00;0.70;;;17.50;99.90;;;;;;5015019;28;20503;-69
2021/09/24 11:06:32;;;;;;;0.40;0.20;;;17.40;99.90;;;;;;5014420;28;20456;-69
2021/09/24 11:09:03;;;;;;;0.80;0.57;;;17.60;99.90;;;;;;5014113;28;20429;-69
2021/09/24 11:11:35;;;;;;;0.40;0.20;;;17.60;99.90;;;;;;5014878;28;20455;-71
2021/09/24 11:14:24;;;;;;;0.40;0.20;;;17.60;99.90;;;;;;5014698;28;20424;-72
2021/09/24 11:16:50;;;;;;;0.40;0.30;;;17.90;99.90;;;;;;5014485;28;20429;-68
2021/09/24 11:19:34;;;;;;;0.40;0.20;;;18.00;99.90;;;;;;5013510;28;20824;-67
2021/09/24 11:21:59;;;;;;;0.40;0.13;;;18.40;99.90;;;;;;5014555;28;20669;-68
2021/09/24 11:24:26;;;;;;;0.40;0.20;;;18.60;99.90;;;;;;5014487;28;20421;-69
2021/09/24 11:27:00;;;;;;;0.40;0.20;;;18.80;99.90;;;;;;5014122;28;20268;-70
2021/09/24 11:29:29;;;;;;;1.83;1.73;;;19.00;93.70;;;;;;5014377;28;20507;-68
2021/09/24 11:32:01;;;;;;;0.77;0.37;;;18.80;28.00;;;;;;5013241;28;20460;-67
2021/09/24 11:34:46;;;;;;;0.40;0.20;;;18.80;50.50;;;;;;5014136;28;20424;-67
2021/09/24 11:37:29;;;;;;;0.70;0.30;;;18.80;99.90;;;;;;5002229;28;20454;-69
2021/09/24 11:40:04;;;;;;;0.80;0.50;;;18.60;95.00;;;;;;5008050;28;20950;-70
2021/09/24 11:42:35;;;;;;;0.70;0.40;;;18.30;99.90;;;;;;4995878;28;20437;-70
2021/09/24 11:45:03;;;;;;;0.70;0.53;;;18.30;99.90;;;;;;4990664;28;20445;-68
2021/09/24 11:47:43;;;;;;;0.43;0.23;;;18.50;99.90;;;;;;4989528;28;20500;-68
2021/09/24 11:50:14;;;;;;;2.00;1.40;;;18.70;99.90;;;;;;4998365;28;20461;-70
2021/09/24 11:52:49;;;;;;;0.60;0.37;;;19.00;89.10;;;;;;5014626;28;20486;-71
2021/09/24 11:55:38;;;;;;;0.50;0.50;;;19.20;7.90;;;;;;4978810;28;20435;-70
2021/09/24 11:58:13;;;;;;;0.40;0.20;;;19.40;1.00;;;;;;4974368;28;20438;-69
2021/09/24 12:00:45;;;;;;;0.50;0.33;;;19.40;1.00;;;;;;4975165;28;20422;-66
2021/09/24 12:03:39;;;;;;;0.40;0.30;;;19.60;1.00;;;;;;4974898;28;20572;-65
2021/09/24 12:06:10;;;;;;;2.30;2.20;;;19.60;1.00;;;;;;4974795;28;20467;-67
2021/09/24 12:08:43;;;;;;;0.40;0.20;;;19.40;1.00;;;;;;4973425;28;20489;-66
2021/09/24 12:11:11;;;;;;;0.53;0.33;;;19.60;1.00;;;;;;4991570;28;20425;-69
2021/09/24 12:13:48;;;;;;;0.50;0.30;;;19.60;1.00;;;;;;5013868;28;20424;-70
2021/09/24 12:16:23;;;;;;;0.50;0.30;;;19.50;1.00;;;;;;5013792;28;20432;-66
2021/09/24 12:18:57;;;;;;;0.50;0.30;;;19.70;1.00;;;;;;5009974;28;20446;-69
2021/09/24 12:21:24;;;;;;;0.40;0.20;;;19.60;1.00;;;;;;4975186;28;20426;-68
2021/09/24 12:23:50;;;;;;;0.50;0.30;;;19.60;1.00;;;;;;4974568;28;20506;-69
2021/09/24 12:26:16;;;;;;;0.40;0.20;;;19.60;1.00;;;;;;4974520;28;20554;-68
2021/09/24 12:28:56;;;;;;;0.40;0.20;;;19.30;1.00;;;;;;4974169;28;20964;-69
2021/09/24 12:31:43;;;;;;;0.47;0.30;;;19.20;1.00;;;;;;4974361;28;20434;-67
2021/09/24 12:34:15;;;;;;;6.63;1.33;;;19.30;1.00;;;;;;4974256;28;20427;-67
2021/09/24 12:37:01;;;;;;;1.53;0.73;;;19.20;1.00;;;;;;4974324;28;20523;-66
2021/09/24 12:39:30;;;;;;;2.63;1.07;;;19.10;1.00;;;;;;4974025;28;20489;-68
2021/09/24 12:41:58;;;;;;;0.80;0.70;;;19.20;1.00;;;;;;4973432;28;20445;-68
2021/09/24 12:44:24;;;;;;;1.30;1.20;;;19.40;1.00;;;;;;4977036;28;20465;-66
2021/09/24 12:46:56;;;;;;;0.47;0.20;;;19.40;1.00;;;;;;5014517;28;20937;-66
2021/09/24 12:49:22;;;;;;;1.10;0.87;;;19.40;1.00;;;;;;5015433;28;20444;-66
2021/09/24 12:51:51;;;;;;;0.40;0.10;;;19.90;1.00;;;;;;4996413;28;20434;-66